Mobeetie, Texas
Current Conditions -  °F | °C
As of 6:15 PM on Friday 24 Oct 2014 (Local Time) from KHHF Reporting Station
Clear Clear  
Wind Chill: 86°   Ceiling: Unl
Heat Index: 86°   Visibility: 10mi
Dew Point: 49°   Wind: 3mph
Humidity: 28%   Direction: 220°SW
Pressure: 30.02"   Gusts: NA
Location:  35.51°N, 100.44°W
Report Text: KHHF 242315Z AUTO 22003KT 10SM CLR 30/10 A3002 RMK AO2 T02990095
Loading
Personal Weather Stations






























Interactive Weather Map
Tropical Storm Tracking
New forecast layout! Learn more

10-Day Weather Forecast

Advertisements
Track Severe Weather on mobile